Time;durP1;ratioP1;P1;durP2;ratioP2;P2;SDS_P1;SDS_P2;PMS_P1;PMS_P2;Temp;Humidity;BMP_temperature;BMP_pressure;BME280_temperature;BME280_humidity;BME280_pressure;Samples;Min_cycle;Max_cycle;Signal;HPM_P1;HPM_P2
2022/08/14 00:02:16;;;;;;;25.13;22.58;;;;;;;18.93;74.28;94387.84;4980090;28;20208;-62
2022/08/14 00:04:42;;;;;;;26.17;23.67;;;;;;;18.84;74.93;94387.28;4979809;28;20207;-62
2022/08/14 00:07:08;;;;;;;28.42;25.42;;;;;;;18.91;74.83;94380.03;4988848;28;20231;-62
2022/08/14 00:09:34;;;;;;;26.13;23.73;;;;;;;18.86;74.93;94374.56;4996650;28;20230;-65
2022/08/14 00:12:00;;;;;;;25.85;23.35;;;;;;;18.88;74.45;94369.84;5011727;28;20215;-62
2022/08/14 00:14:27;;;;;;;25.77;23.25;;;;;;;18.91;74.48;94366.72;5008233;28;20276;-62
2022/08/14 00:16:53;;;;;;;23.83;21.58;;;;;;;18.83;74.67;94360.88;4978622;28;20298;-63
2022/08/14 00:19:19;;;;;;;25.77;22.95;;;;;;;18.78;74.88;94361.53;4991111;28;20223;-63
2022/08/14 00:21:44;;;;;;;23.48;21.23;;;;;;;18.75;75.24;94366.47;4987696;28;20231;-63
2022/08/14 00:24:10;;;;;;;23.38;21.08;;;;;;;18.74;75.44;94362.97;4985294;28;20230;-63
2022/08/14 00:26:35;;;;;;;22.52;20.20;;;;;;;18.75;75.16;94358.50;4978711;28;20231;-63
2022/08/14 00:29:00;;;;;;;19.77;17.98;;;;;;;18.76;74.51;94360.09;4981467;28;20208;-63
2022/08/14 00:31:27;;;;;;;20.20;18.35;;;;;;;18.81;73.59;94363.75;4978868;28;20238;-63
2022/08/14 00:33:53;;;;;;;20.13;18.25;;;;;;;18.76;73.20;94371.56;4980662;28;20239;-63
2022/08/14 00:36:21;;;;;;;20.05;18.10;;;;;;;18.77;72.83;94367.09;4995807;28;20228;-63
2022/08/14 00:38:46;;;;;;;21.00;19.05;;;;;;;18.85;72.46;94366.81;4987897;28;20239;-63
2022/08/14 00:41:11;;;;;;;22.00;19.70;;;;;;;18.80;73.20;94367.44;4994396;28;20264;-63
2022/08/14 00:43:37;;;;;;;20.75;18.95;;;;;;;18.73;74.31;94362.13;4992795;28;20282;-63
2022/08/14 00:46:08;;;;;;;20.08;18.17;;;;;;;18.72;73.63;94368.50;4987037;28;20240;-63
2022/08/14 00:48:35;;;;;;;21.33;19.38;;;;;;;18.80;73.49;94363.97;4978880;28;20223;-63
2022/08/14 00:51:03;;;;;;;20.92;19.05;;;;;;;18.78;73.19;94360.72;4994353;28;20313;-63
2022/08/14 00:53:30;;;;;;;20.45;18.45;;;;;;;18.72;73.76;94354.38;4983390;28;20207;-63
2022/08/14 00:55:56;;;;;;;20.10;18.15;;;;;;;18.72;74.07;94360.50;4981581;28;20275;-63
2022/08/14 00:58:32;;;;;;;20.70;18.55;;;;;;;18.70;74.18;94351.91;4981472;28;20228;-63
2022/08/14 01:01:08;;;;;;;20.35;18.48;;;;;;;18.59;74.45;94338.50;4977792;28;20234;-63
2022/08/14 01:03:36;;;;;;;20.95;18.85;;;;;;;18.59;74.80;94344.66;4981498;28;20224;-63
2022/08/14 01:06:02;;;;;;;21.70;19.70;;;;;;;18.42;75.30;94327.59;4978411;28;20283;-63
2022/08/14 01:08:29;;;;;;;23.08;20.75;;;;;;;18.44;76.07;94338.81;4980481;28;20303;-63
2022/08/14 01:10:56;;;;;;;21.95;19.75;;;;;;;18.49;75.86;94337.13;4980711;28;20743;-63
2022/08/14 01:13:25;;;;;;;23.42;21.02;;;;;;;18.60;75.60;94335.63;4983128;28;20227;-63
2022/08/14 01:15:53;;;;;;;24.42;22.02;;;;;;;18.65;75.09;94334.97;4993716;28;20292;-63
2022/08/14 01:21:10;;;;;;;21.45;19.30;;;;;;;18.65;75.63;94326.97;4998729;28;20281;-62
2022/08/14 01:23:45;;;;;;;22.25;20.27;;;;;;;18.71;75.41;94326.09;5008292;28;20231;-62
2022/08/14 01:26:11;;;;;;;22.90;20.70;;;;;;;18.70;75.14;94327.16;5021282;28;20226;-63
2022/08/14 01:28:38;;;;;;;20.83;18.77;;;;;;;18.69;74.76;94329.00;4989166;28;20363;-63
2022/08/14 01:31:15;;;;;;;21.15;18.92;;;;;;;18.72;74.12;94327.75;4980150;28;20224;-63
2022/08/14 01:33:45;;;;;;;21.75;19.60;;;;;;;18.74;74.52;94320.38;4986315;28;20301;-63
2022/08/14 01:36:11;;;;;;;21.20;19.27;;;;;;;18.67;74.75;94316.94;4985188;28;20224;-63
2022/08/14 01:38:39;;;;;;;21.40;19.60;;;;;;;18.66;75.10;94331.28;4981132;28;20235;-62
2022/08/14 01:41:08;;;;;;;21.05;19.27;;;;;;;18.61;74.89;94321.28;4987664;28;20215;-62
2022/08/14 01:43:47;;;;;;;19.33;17.45;;;;;;;18.52;73.63;94328.75;4991678;28;20317;-63
2022/08/14 01:46:16;;;;;;;18.30;16.60;;;;;;;18.59;72.61;94317.22;4977857;28;20247;-63
2022/08/14 01:48:43;;;;;;;18.45;16.70;;;;;;;18.46;72.23;94326.94;4978324;28;20239;-63
2022/08/14 01:51:11;;;;;;;17.00;15.45;;;;;;;18.08;73.94;94327.81;4980873;28;20362;-63
2022/08/14 01:53:39;;;;;;;17.75;16.15;;;;;;;18.26;73.81;94335.09;4984390;28;20219;-63
2022/08/14 01:56:05;;;;;;;18.25;16.55;;;;;;;18.43;74.13;94324.72;5000709;28;20204;-62
2022/08/14 01:58:31;;;;;;;17.63;16.02;;;;;;;18.56;73.55;94322.97;4983914;28;20226;-62
2022/08/14 02:00:58;;;;;;;17.25;15.65;;;;;;;18.58;73.34;94318.22;4982061;28;20219;-63
2022/08/14 02:03:27;;;;;;;16.45;15.05;;;;;;;18.59;72.52;94322.53;4978787;28;20260;-63
2022/08/14 02:05:58;;;;;;;15.50;14.20;;;;;;;18.63;71.95;94316.56;4982119;28;20270;-63
2022/08/14 02:08:29;;;;;;;13.15;12.02;;;;;;;18.61;71.40;94315.97;4974692;28;20239;-62
2022/08/14 02:13:42;;;;;;;13.60;12.43;;;;;;;18.67;70.67;94320.41;4990191;28;20242;-62
2022/08/14 02:16:10;;;;;;;11.85;10.95;;;;;;;18.59;70.40;94309.22;4994214;28;20246;-63
2022/08/14 02:18:36;;;;;;;13.23;11.90;;;;;;;18.57;70.92;94308.63;5002952;28;20222;-63
2022/08/14 02:21:03;;;;;;;13.77;12.57;;;;;;;18.37;71.13;94309.63;5006649;28;20227;-63
2022/08/14 02:23:31;;;;;;;14.63;13.43;;;;;;;18.44;71.10;94305.06;5011330;28;20203;-63
2022/08/14 02:25:58;;;;;;;15.20;13.75;;;;;;;18.51;71.09;94310.31;5008437;28;20217;-63
2022/08/14 02:28:25;;;;;;;13.40;12.38;;;;;;;18.36;72.08;94310.63;5009077;28;20222;-63
2022/08/14 02:30:51;;;;;;;15.07;13.70;;;;;;;18.03;71.76;94298.38;5002141;28;20223;-63
2022/08/14 02:33:17;;;;;;;13.27;12.18;;;;;;;17.96;72.13;94302.97;4989168;28;20230;-63
2022/08/14 02:35:43;;;;;;;14.20;13.10;;;;;;;17.80;73.30;94309.59;4987425;28;20231;-63
2022/08/14 02:38:08;;;;;;;14.70;13.40;;;;;;;17.67;74.27;94311.47;4991477;28;20326;-62
2022/08/14 02:40:36;;;;;;;15.48;13.98;;;;;;;17.66;74.00;94302.66;4980163;28;20270;-62
2022/08/14 02:43:04;;;;;;;13.93;12.73;;;;;;;17.79;73.78;94304.47;4978352;28;20224;-62
2022/08/14 02:45:32;;;;;;;14.55;13.13;;;;;;;17.88;74.17;94311.16;4980970;28;20230;-62
2022/08/14 02:48:02;;;;;;;17.95;13.45;;;;;;;17.97;73.93;94309.91;4982214;28;20315;-62
2022/08/14 02:50:28;;;;;;;15.13;13.63;;;;;;;18.11;74.11;94307.97;4976211;28;20204;-63
2022/08/14 02:52:53;;;;;;;16.13;14.52;;;;;;;18.08;74.87;94300.41;4977704;28;20290;-63
2022/08/14 02:55:19;;;;;;;16.23;14.75;;;;;;;17.88;76.30;94295.22;4977120;28;20220;-63
2022/08/14 02:57:46;;;;;;;15.80;14.32;;;;;;;17.79;77.55;94297.31;4983258;28;20307;-63
2022/08/14 03:00:12;;;;;;;18.95;17.00;;;;;;;17.83;77.50;94301.19;4976289;28;20235;-62
2022/08/14 03:02:38;;;;;;;17.58;16.08;;;;;;;17.94;77.30;94299.69;4987810;28;20219;-63
2022/08/14 03:05:04;;;;;;;17.02;15.60;;;;;;;18.05;76.92;94300.84;4999226;28;20200;-63
2022/08/14 03:07:29;;;;;;;18.65;16.95;;;;;;;18.22;76.30;94304.59;4980283;28;20230;-63
2022/08/14 03:09:55;;;;;;;18.15;16.20;;;;;;;18.28;75.73;94300.25;4974083;28;20227;-63
2022/08/14 03:12:21;;;;;;;21.13;18.92;;;;;;;18.33;75.72;94302.28;4982451;28;20255;-63
2022/08/14 03:14:50;;;;;;;21.38;19.48;;;;;;;18.29;75.99;94304.56;4988460;28;20243;-63
2022/08/14 03:17:16;;;;;;;24.60;22.23;;;;;;;18.40;75.28;94300.38;4989034;28;20326;-64
2022/08/14 03:19:41;;;;;;;25.15;22.67;;;;;;;18.28;75.27;94303.75;4989005;28;20412;-63
2022/08/14 03:22:07;;;;;;;24.15;21.65;;;;;;;18.36;75.04;94302.63;4993904;28;20297;-63
2022/08/14 03:24:35;;;;;;;24.33;21.75;;;;;;;18.38;75.19;94299.78;4989084;28;20216;-63
2022/08/14 03:27:02;;;;;;;25.10;22.77;;;;;;;18.44;74.94;94302.41;4982653;28;20322;-63
2022/08/14 03:29:28;;;;;;;25.73;23.33;;;;;;;18.36;75.04;94310.63;4979777;28;20219;-63
2022/08/14 03:31:54;;;;;;;25.10;22.70;;;;;;;18.37;75.40;94312.28;4980070;28;20199;-63
2022/08/14 03:34:24;;;;;;;26.45;23.85;;;;;;;18.38;75.47;94319.22;4976575;28;20223;-62
2022/08/14 03:36:57;;;;;;;24.85;22.40;;;;;;;18.36;75.67;94331.91;4985562;28;20239;-62
2022/08/14 03:39:23;;;;;;;25.10;22.90;;;;;;;18.40;75.45;94327.81;4981002;28;20235;-62
2022/08/14 03:41:51;;;;;;;27.00;23.95;;;;;;;18.39;75.56;94318.19;4983062;28;20277;-62
2022/08/14 03:44:16;;;;;;;28.77;25.80;;;;;;;18.43;75.19;94319.38;4974873;28;20200;-63
2022/08/14 03:46:42;;;;;;;27.50;24.63;;;;;;;18.40;75.58;94319.00;4976431;28;20218;-63
2022/08/14 03:49:08;;;;;;;27.77;24.85;;;;;;;18.42;75.37;94319.63;4989361;28;20230;-62
2022/08/14 03:51:35;;;;;;;28.15;25.35;;;;;;;18.36;75.60;94323.94;5005150;28;20227;-62
2022/08/14 03:54:04;;;;;;;29.88;26.88;;;;;;;18.27;76.39;94333.22;5003731;28;20230;-62
2022/08/14 03:56:31;;;;;;;31.05;26.92;;;;;;;18.34;75.94;94334.00;4997713;28;20457;-62
2022/08/14 03:59:04;;;;;;;30.63;27.02;;;;;;;18.32;75.82;94327.25;5012345;28;20194;-63
2022/08/14 04:01:29;;;;;;;32.03;28.25;;;;;;;18.30;75.66;94325.63;4997399;28;20212;-63
2022/08/14 04:04:01;;;;;;;30.40;27.38;;;;;;;18.15;76.57;94326.97;4994075;28;20234;-62
2022/08/14 04:06:27;;;;;;;32.53;27.15;;;;;;;18.21;76.73;94337.56;4991312;28;20682;-62
2022/08/14 04:08:53;;;;;;;31.65;28.17;;;;;;;18.34;76.09;94336.66;4980218;28;20227;-62
2022/08/14 04:11:19;;;;;;;33.78;30.08;;;;;;;18.20;77.08;94333.28;4981423;28;20192;-62
2022/08/14 04:13:45;;;;;;;35.22;29.90;;;;;;;18.36;76.34;94331.91;4989208;28;20311;-62
2022/08/14 04:16:15;;;;;;;33.95;29.33;;;;;;;18.08;77.11;94338.47;4991303;28;20238;-63
2022/08/14 04:18:42;;;;;;;33.88;29.20;;;;;;;18.20;77.00;94329.78;5004348;28;20222;-63
2022/08/14 04:21:09;;;;;;;34.80;30.48;;;;;;;18.29;76.07;94325.84;5021129;28;20222;-63
2022/08/14 04:23:35;;;;;;;37.00;30.52;;;;;;;18.35;75.95;94335.63;4987960;28;20586;-63
2022/08/14 04:26:03;;;;;;;33.72;30.13;;;;;;;18.32;76.10;94338.72;4972871;28;20274;-62
2022/08/14 04:28:30;;;;;;;34.00;30.33;;;;;;;18.23;76.85;94340.00;4984364;28;20223;-63
2022/08/14 04:30:55;;;;;;;33.35;29.48;;;;;;;18.40;75.89;94330.47;4998265;28;20226;-63
2022/08/14 04:33:23;;;;;;;35.35;31.55;;;;;;;18.41;74.98;94332.09;4989262;28;20224;-63
2022/08/14 04:35:50;;;;;;;32.38;28.88;;;;;;;18.42;74.96;94328.41;4991357;28;20231;-63
2022/08/14 04:43:44;;;;;;;36.20;32.42;;;;;;;18.51;74.32;94327.09;5006395;28;20223;-63
2022/08/14 04:46:16;;;;;;;34.25;30.98;;;;;;;18.64;73.73;94328.84;5007592;28;20227;-62
2022/08/14 04:48:41;;;;;;;33.88;30.23;;;;;;;18.73;73.42;94330.19;5002898;28;20211;-62
2022/08/14 04:51:11;;;;;;;35.88;30.98;;;;;;;18.72;73.61;94327.75;5009105;28;20227;-62
2022/08/14 04:53:42;;;;;;;34.03;30.73;;;;;;;18.82;72.91;94333.44;4997407;28;20226;-63
2022/08/14 04:56:09;;;;;;;34.83;31.30;;;;;;;18.81;73.52;94328.31;5006779;28;20266;-63
2022/08/14 04:58:35;;;;;;;32.83;29.70;;;;;;;18.77;73.43;94327.94;4992362;28;20235;-62
2022/08/14 05:01:06;;;;;;;34.40;31.02;;;;;;;18.73;73.45;94338.16;4989256;28;20246;-63
2022/08/14 05:03:34;;;;;;;32.03;28.90;;;;;;;18.79;73.18;94333.88;5005147;28;20218;-63
2022/08/14 05:06:03;;;;;;;32.53;29.35;;;;;;;18.81;72.80;94330.97;5012538;28;20222;-63
2022/08/14 05:08:30;;;;;;;30.15;27.15;;;;;;;18.73;73.11;94324.03;5008738;28;20326;-64
2022/08/14 05:10:58;;;;;;;32.35;29.35;;;;;;;18.62;73.65;94319.44;5011486;28;20222;-63
2022/08/14 05:13:26;;;;;;;30.73;27.85;;;;;;;18.76;73.33;94317.50;4989886;28;20235;-62
2022/08/14 05:15:54;;;;;;;30.00;27.23;;;;;;;18.61;74.02;94318.63;4989216;28;20273;-63
2022/08/14 05:18:22;;;;;;;29.83;26.92;;;;;;;18.70;73.48;94324.47;4989956;28;20223;-62
2022/08/14 05:20:56;;;;;;;30.00;27.00;;;;;;;18.78;73.86;94332.22;4992810;28;20222;-63
2022/08/14 05:23:24;;;;;;;30.45;27.52;;;;;;;18.80;74.36;94332.00;4993073;28;20212;-63
2022/08/14 05:25:58;;;;;;;29.75;27.15;;;;;;;18.79;74.35;94333.03;4997096;28;20205;-62
2022/08/14 05:28:26;;;;;;;30.20;27.30;;;;;;;18.80;74.02;94338.16;4994626;28;20243;-62
2022/08/14 05:30:54;;;;;;;29.40;26.65;;;;;;;18.63;74.53;94331.72;4987299;28;20223;-62
2022/08/14 05:33:23;;;;;;;30.30;27.35;;;;;;;18.50;75.60;94330.81;4983172;28;20219;-63
2022/08/14 05:35:50;;;;;;;28.83;26.02;;;;;;;18.69;74.58;94328.19;4982431;28;20239;-63
2022/08/14 05:38:18;;;;;;;28.20;25.45;;;;;;;18.85;74.23;94332.19;4984693;28;20242;-64
2022/08/14 05:40:45;;;;;;;27.95;25.17;;;;;;;18.79;74.37;94330.38;4982139;28;20215;-62
2022/08/14 05:43:12;;;;;;;26.30;24.05;;;;;;;18.84;74.65;94335.84;4985979;28;20220;-63
2022/08/14 05:45:37;;;;;;;26.20;23.80;;;;;;;18.93;73.78;94335.38;4987914;28;20216;-62
2022/08/14 05:48:05;;;;;;;27.42;25.02;;;;;;;18.99;73.19;94332.84;4996338;28;20241;-63
2022/08/14 05:50:32;;;;;;;26.33;24.08;;;;;;;19.07;72.90;94335.22;4979592;28;20219;-63
2022/08/14 05:52:57;;;;;;;25.50;23.20;;;;;;;19.13;72.27;94331.69;4984051;28;20211;-63
2022/08/14 05:55:24;;;;;;;26.83;24.40;;;;;;;18.95;72.77;94332.47;5010657;28;20225;-63
2022/08/14 05:57:53;;;;;;;25.95;23.65;;;;;;;18.61;74.29;94334.59;4995944;28;20295;-63
2022/08/14 06:00:22;;;;;;;26.13;23.73;;;;;;;18.67;74.13;94330.25;4991866;28;20230;-63
2022/08/14 06:02:47;;;;;;;26.05;23.65;;;;;;;18.87;73.58;94325.59;4992772;28;20309;-62
2022/08/14 06:05:13;;;;;;;26.33;24.05;;;;;;;18.95;73.65;94333.31;4993127;28;20370;-63
2022/08/14 06:07:38;;;;;;;25.40;23.00;;;;;;;18.98;73.46;94326.72;5009502;28;20214;-63
2022/08/14 06:10:05;;;;;;;24.25;22.15;;;;;;;19.06;73.42;94336.25;5000787;28;20223;-63
2022/08/14 06:12:31;;;;;;;23.15;21.13;;;;;;;18.97;73.07;94340.25;5003248;28;20266;-63
2022/08/14 06:14:57;;;;;;;23.52;21.52;;;;;;;18.92;73.70;94341.75;5013654;28;20266;-62
2022/08/14 06:17:22;;;;;;;25.63;23.02;;;;;;;19.00;73.59;94342.47;5008395;28;20195;-63
2022/08/14 06:19:48;;;;;;;23.88;21.88;;;;;;;19.11;73.75;94347.06;4978581;28;20211;-62
2022/08/14 06:22:13;;;;;;;23.45;21.35;;;;;;;18.99;73.46;94339.00;4994407;28;20231;-62
2022/08/14 06:24:39;;;;;;;22.83;20.52;;;;;;;19.15;73.00;94340.28;4988121;28;20235;-63
2022/08/14 06:27:04;;;;;;;21.10;19.17;;;;;;;19.18;73.07;94337.97;4988257;28;20219;-62
2022/08/14 06:29:30;;;;;;;21.98;19.88;;;;;;;19.32;72.72;94343.97;4989974;28;20206;-63
2022/08/14 06:31:56;;;;;;;20.88;19.08;;;;;;;19.36;72.55;94345.16;4988441;28;20211;-64
2022/08/14 06:34:21;;;;;;;20.23;18.40;;;;;;;19.46;71.96;94338.47;4997628;28;20229;-63
2022/08/14 06:36:47;;;;;;;20.17;18.42;;;;;;;19.38;71.96;94348.44;4979053;28;20235;-63
2022/08/14 06:39:12;;;;;;;19.42;17.83;;;;;;;19.41;71.65;94347.16;4987077;28;20259;-63
2022/08/14 06:41:40;;;;;;;22.15;20.23;;;;;;;19.48;71.74;94355.06;4987751;28;20323;-63
2022/08/14 06:44:07;;;;;;;23.75;21.13;;;;;;;19.45;71.84;94352.84;4981197;28;20262;-63
2022/08/14 06:46:32;;;;;;;24.33;21.88;;;;;;;19.44;72.21;94353.91;4976032;28;20246;-63
2022/08/14 06:48:58;;;;;;;26.05;23.55;;;;;;;19.35;72.94;94340.88;5001613;28;20274;-63
2022/08/14 06:51:23;;;;;;;26.45;23.85;;;;;;;19.41;72.89;94344.50;4994983;28;20338;-63
2022/08/14 06:53:48;;;;;;;27.55;25.05;;;;;;;19.43;72.73;94350.41;4985533;28;20231;-63
2022/08/14 06:56:14;;;;;;;26.20;23.88;;;;;;;19.53;72.34;94349.88;4985385;28;20378;-63
2022/08/14 06:58:39;;;;;;;25.65;23.33;;;;;;;19.54;72.23;94355.00;5008213;28;20673;-63
2022/08/14 07:06:33;;;;;;;23.52;21.30;;;;;;;19.16;73.17;94355.22;4977104;28;20229;-63
2022/08/14 07:08:58;;;;;;;24.52;22.35;;;;;;;19.37;72.85;94351.31;4985492;28;20224;-63
2022/08/14 07:11:23;;;;;;;25.88;23.58;;;;;;;19.58;71.80;94360.72;4979241;28;20204;-63
2022/08/14 07:13:49;;;;;;;25.48;23.30;;;;;;;19.64;71.13;94361.66;4983436;28;20210;-63
2022/08/14 07:16:14;;;;;;;24.77;22.52;;;;;;;19.68;71.39;94358.34;4979952;28;20227;-63
2022/08/14 07:18:40;;;;;;;24.33;22.23;;;;;;;19.80;70.67;94355.75;4983805;28;20280;-62
2022/08/14 07:21:07;;;;;;;28.90;26.45;;;;;;;19.87;70.62;94353.81;4978751;28;20220;-63
2022/08/14 07:23:33;;;;;;;23.52;21.52;;;;;;;19.97;70.16;94361.28;4986229;28;20227;-63
2022/08/14 07:26:00;;;;;;;24.15;22.05;;;;;;;20.13;69.33;94359.81;4980333;28;20200;-63
2022/08/14 07:28:33;;;;;;;22.67;20.65;;;;;;;20.13;69.31;94357.97;4998440;28;20228;-62
2022/08/14 07:31:01;;;;;;;23.83;21.83;;;;;;;20.22;68.84;94361.13;4990173;28;20313;-63
2022/08/14 07:33:31;;;;;;;23.25;21.15;;;;;;;20.42;68.13;94355.50;4991820;28;20227;-63
2022/08/14 07:36:01;;;;;;;22.70;20.90;;;;;;;20.51;67.36;94356.81;4989398;28;20321;-63
2022/08/14 07:38:28;;;;;;;22.58;20.63;;;;;;;20.58;67.01;94354.88;4982816;28;20253;-63
2022/08/14 07:40:53;;;;;;;21.80;19.90;;;;;;;20.70;66.17;94361.03;4995094;28;20294;-64
2022/08/14 07:43:20;;;;;;;22.10;20.27;;;;;;;20.87;65.27;94365.69;4985254;28;20315;-62
2022/08/14 07:45:46;;;;;;;21.42;19.63;;;;;;;21.01;64.80;94364.44;4989987;28;20266;-63
2022/08/14 07:48:11;;;;;;;21.20;19.30;;;;;;;20.98;65.41;94362.22;5000397;28;20578;-62
2022/08/14 07:50:38;;;;;;;21.35;19.27;;;;;;;20.86;65.32;94364.88;5005017;28;20277;-62
2022/08/14 07:53:05;;;;;;;20.08;18.30;;;;;;;20.79;65.05;94368.72;4988878;28;20204;-63
2022/08/14 07:55:31;;;;;;;20.00;18.20;;;;;;;20.64;65.46;94372.66;4991912;28;20314;-63
2022/08/14 07:57:56;;;;;;;12.63;11.63;;;;;;;20.52;63.91;94366.44;5003923;28;20305;-63
2022/08/14 08:00:24;;;;;;;13.38;12.20;;;;;;;20.26;64.37;94362.28;5006869;28;20220;-63
2022/08/14 08:02:51;;;;;;;13.50;12.43;;;;;;;20.24;64.91;94361.72;4993660;28;20230;-62
2022/08/14 08:05:19;;;;;;;12.52;11.55;;;;;;;20.11;65.44;94367.25;5007758;28;20207;-61
2022/08/14 08:07:46;;;;;;;12.23;11.23;;;;;;;20.22;64.79;94367.28;4996042;28;20265;-62
2022/08/14 08:10:30;;;;;;;13.13;12.02;;;;;;;20.27;65.60;94366.59;5009854;28;20226;-63
2022/08/14 08:13:03;;;;;;;14.30;13.18;;;;;;;20.28;65.53;94368.22;5009889;28;20270;-62
2022/08/14 08:15:31;;;;;;;17.02;15.57;;;;;;;20.32;66.28;94361.41;4995176;28;20223;-62
2022/08/14 08:17:59;;;;;;;16.88;15.50;;;;;;;20.24;67.01;94367.06;4992098;28;20230;-62
2022/08/14 08:20:26;;;;;;;10.82;9.82;;;;;;;20.33;64.81;94359.53;5017937;28;20211;-63
2022/08/14 08:22:57;;;;;;;7.22;6.63;;;;;;;20.18;63.84;94363.47;5002952;28;20206;-63
2022/08/14 08:25:24;;;;;;;7.32;6.63;;;;;;;20.33;63.73;94354.19;5003349;28;20506;-63
2022/08/14 08:27:56;;;;;;;7.40;6.80;;;;;;;20.67;63.21;94364.16;5011433;28;20613;-63
2022/08/14 08:30:21;;;;;;;6.28;5.75;;;;;;;20.89;62.21;94352.94;5000498;28;20239;-63
2022/08/14 08:32:48;;;;;;;6.18;5.78;;;;;;;20.99;61.90;94360.38;5005416;28;20226;-63
2022/08/14 08:35:27;;;;;;;6.60;6.10;;;;;;;21.15;61.44;94365.03;4996188;28;20215;-63
2022/08/14 08:37:59;;;;;;;6.53;6.03;;;;;;;21.29;60.46;94358.38;5015823;28;20242;-63
2022/08/14 08:40:28;;;;;;;6.80;5.80;;;;;;;21.51;59.95;94353.25;4998645;28;20215;-64
2022/08/14 08:42:54;;;;;;;5.88;5.47;;;;;;;21.54;59.92;94350.13;4990893;28;20310;-63
2022/08/14 08:45:20;;;;;;;6.22;5.72;;;;;;;21.35;59.70;94353.94;4977611;28;20539;-62
2022/08/14 08:47:46;;;;;;;5.70;5.22;;;;;;;21.60;58.75;94359.06;4993937;28;20254;-63
2022/08/14 08:50:17;;;;;;;5.88;5.45;;;;;;;21.76;58.15;94358.31;4992384;28;20207;-63
2022/08/14 08:53:04;;;;;;;6.10;5.50;;;;;;;21.78;58.22;94358.06;5014547;28;20214;-62
2022/08/14 08:55:39;;;;;;;5.78;5.30;;;;;;;21.72;57.77;94351.81;5014920;28;20252;-62
2022/08/14 08:58:07;;;;;;;5.72;5.22;;;;;;;21.83;56.78;94347.47;4997912;28;20291;-62
2022/08/14 09:00:34;;;;;;;4.57;4.28;;;;;;;21.96;55.84;94346.38;4992878;28;20230;-62
2022/08/14 09:03:16;;;;;;;5.60;4.50;;;;;;;21.97;55.71;94338.13;4985015;28;20266;-62
2022/08/14 09:06:04;;;;;;;4.25;3.85;;;;;;;22.05;54.55;94341.44;4984420;28;20235;-63
2022/08/14 09:08:34;;;;;;;4.07;3.80;;;;;;;22.18;54.19;94338.47;4989544;28;20758;-63
2022/08/14 09:11:08;;;;;;;4.45;4.05;;;;;;;22.02;53.77;94340.91;5012809;28;20207;-63
2022/08/14 09:13:35;;;;;;;4.63;4.22;;;;;;;22.17;53.11;94334.19;4991663;28;20219;-62
2022/08/14 09:16:00;;;;;;;4.55;4.25;;;;;;;22.13;52.66;94331.19;4983236;28;20306;-62
2022/08/14 09:18:26;;;;;;;4.63;4.32;;;;;;;22.19;53.52;94332.94;5003580;28;20283;-63
2022/08/14 09:20:54;;;;;;;4.85;4.55;;;;;;;22.24;53.02;94329.53;5011400;28;20231;-63
2022/08/14 09:23:20;;;;;;;5.53;5.03;;;;;;;22.43;52.81;94322.91;5006422;28;20224;-63
2022/08/14 09:25:51;;;;;;;4.70;4.38;;;;;;;22.62;52.32;94323.47;4994180;28;20230;-63
2022/08/14 09:28:18;;;;;;;5.13;4.72;;;;;;;22.50;52.90;94327.28;4994437;28;20231;-63
2022/08/14 09:30:51;;;;;;;5.53;4.95;;;;;;;22.65;52.50;94325.66;4992381;28;20244;-63
2022/08/14 09:33:23;;;;;;;5.70;5.22;;;;;;;22.82;52.39;94328.34;4983522;28;20302;-63
2022/08/14 09:36:19;;;;;;;5.88;5.47;;;;;;;23.18;51.01;94322.75;4980727;28;20310;-63
2022/08/14 09:39:06;;;;;;;6.25;5.75;;;;;;;23.42;50.74;94326.81;4988319;28;20228;-63
2022/08/14 09:41:51;;;;;;;6.60;6.10;;;;;;;23.82;48.90;94338.31;4986068;28;20282;-62
2022/08/14 09:44:46;;;;;;;6.22;5.72;;;;;;;23.70;49.13;94328.50;4987083;28;20206;-62
2022/08/14 09:47:13;;;;;;;8.88;7.75;;;;;;;23.71;49.55;94319.44;5006332;28;20199;-63
2022/08/14 09:49:41;;;;;;;8.25;6.50;;;;;;;23.96;49.95;94331.53;4976734;28;20211;-63
2022/08/14 09:52:13;;;;;;;7.13;6.63;;;;;;;24.23;49.34;94331.53;4991673;28;20246;-63
2022/08/14 09:54:45;;;;;;;7.53;7.03;;;;;;;24.37;49.63;94326.56;4993876;28;20230;-63
2022/08/14 09:57:24;;;;;;;6.95;6.45;;;;;;;24.03;50.04;94313.34;4987876;28;20227;-63
2022/08/14 09:59:51;;;;;;;8.73;8.02;;;;;;;24.02;49.46;94314.38;4988475;28;20227;-63
2022/08/14 10:02:30;;;;;;;8.50;7.90;;;;;;;23.69;50.46;94309.97;4977302;28;20259;-63
2022/08/14 10:04:59;;;;;;;8.63;8.02;;;;;;;23.54;50.45;94313.28;4986283;28;20206;-63
2022/08/14 10:07:33;;;;;;;8.88;8.18;;;;;;;23.39;50.76;94316.59;4976198;28;20234;-62
2022/08/14 10:09:59;;;;;;;8.38;7.78;;;;;;;23.23;51.73;94320.94;5002076;28;20289;-62
2022/08/14 10:12:38;;;;;;;8.13;7.30;;;;;;;22.84;53.05;94315.50;5003074;28;20218;-63
2022/08/14 10:15:14;;;;;;;7.38;6.78;;;;;;;22.70;53.89;94324.94;4984319;28;20615;-62
2022/08/14 10:17:40;;;;;;;7.45;6.75;;;;;;;22.64;53.73;94320.53;4977713;28;20254;-63
2022/08/14 10:20:07;;;;;;;6.18;5.78;;;;;;;22.58;54.20;94325.00;4977206;28;20234;-63
2022/08/14 10:22:32;;;;;;;7.40;6.90;;;;;;;22.51;54.11;94316.34;4978737;28;20251;-63
2022/08/14 10:25:13;;;;;;;7.35;6.75;;;;;;;22.11;55.01;94311.06;5001868;28;20269;-63
2022/08/14 10:27:39;;;;;;;6.72;6.25;;;;;;;22.23;54.40;94309.16;4993675;28;20279;-64
2022/08/14 10:30:12;;;;;;;7.85;6.03;;;;;;;21.96;55.54;94314.25;5008191;28;20214;-63
2022/08/14 10:32:45;;;;;;;7.00;6.50;;;;;;;22.18;54.91;94307.19;4989261;28;20250;-62
2022/08/14 10:35:11;;;;;;;6.95;6.45;;;;;;;22.26;54.98;94308.66;4990628;28;20220;-62
2022/08/14 10:37:39;;;;;;;6.40;5.93;;;;;;;22.30;54.52;94306.34;4979446;28;20243;-62
2022/08/14 10:40:06;;;;;;;7.10;6.55;;;;;;;22.23;54.46;94307.28;4987148;28;20230;-62
2022/08/14 10:42:39;;;;;;;7.80;7.10;;;;;;;22.25;54.20;94301.69;4984872;28;20220;-63
2022/08/14 10:45:32;;;;;;;6.03;5.60;;;;;;;22.29;54.21;94289.44;4994764;28;20574;-64
2022/08/14 10:48:00;;;;;;;6.60;6.10;;;;;;;22.43;53.26;94285.41;4988414;28;20234;-62
2022/08/14 10:50:34;;;;;;;5.50;5.10;;;;;;;22.74;53.21;94283.19;4988092;28;20298;-62
2022/08/14 10:53:04;;;;;;;5.47;4.97;;;;;;;22.96;52.33;94285.09;4990742;28;20225;-62
2022/08/14 10:55:40;;;;;;;5.20;4.90;;;;;;;22.93;52.10;94289.09;4989107;28;20341;-62
2022/08/14 10:58:11;;;;;;;5.28;4.97;;;;;;;23.18;51.26;94277.16;4990006;28;20222;-63
2022/08/14 11:00:52;;;;;;;5.13;4.75;;;;;;;23.17;51.34;94270.94;4990746;28;20244;-63
2022/08/14 11:03:17;;;;;;;5.40;5.00;;;;;;;22.95;51.52;94278.13;4986106;28;20227;-63
2022/08/14 11:05:47;;;;;;;5.20;4.80;;;;;;;23.12;51.25;94278.91;4997818;28;20222;-62
2022/08/14 11:08:14;;;;;;;6.18;5.78;;;;;;;23.48;50.33;94265.97;5007940;28;20252;-62
2022/08/14 11:10:50;;;;;;;5.18;4.78;;;;;;;23.78;49.58;94260.97;5002811;28;20617;-63
2022/08/14 11:13:20;;;;;;;5.35;5.03;;;;;;;23.96;48.87;94259.81;5004781;28;20229;-63
2022/08/14 11:15:48;;;;;;;5.93;5.43;;;;;;;24.13;48.51;94253.53;5008670;28;20234;-63
2022/08/14 11:18:14;;;;;;;5.80;5.40;;;;;;;24.28;47.90;94252.88;5001714;28;20226;-63
2022/08/14 11:20:49;;;;;;;6.03;5.63;;;;;;;24.47;46.94;94256.81;4989085;28;20222;-63
2022/08/14 11:23:17;;;;;;;5.78;5.35;;;;;;;24.48;46.72;94257.63;4994983;28;20195;-64
2022/08/14 11:25:44;;;;;;;5.30;4.97;;;;;;;24.24;47.64;94243.69;4990083;28;20202;-62
2022/08/14 11:28:13;;;;;;;5.78;5.38;;;;;;;24.24;47.69;94241.00;4989233;28;20326;-62
2022/08/14 11:30:41;;;;;;;6.25;5.85;;;;;;;24.21;47.39;94242.31;4981757;28;20219;-63
2022/08/14 11:33:07;;;;;;;6.10;5.63;;;;;;;24.27;46.98;94253.91;4984374;28;20223;-63
2022/08/14 11:35:32;;;;;;;5.78;5.38;;;;;;;24.16;46.78;94255.69;4982407;28;20220;-62
2022/08/14 11:38:01;;;;;;;6.28;5.88;;;;;;;23.92;47.67;94260.56;4980618;28;20294;-63
2022/08/14 11:40:29;;;;;;;6.82;6.32;;;;;;;23.95;47.51;94260.06;4976683;28;20266;-62
2022/08/14 11:42:55;;;;;;;6.60;6.10;;;;;;;23.81;48.10;94256.16;4974079;28;20234;-63
2022/08/14 11:45:27;;;;;;;6.53;6.03;;;;;;;23.61;49.08;94262.09;5002860;28;20807;-62